Villa Norma, Puerto Rico
Current Conditions -  °F | °C
As of 7:56 PM on Wednesday 28 Jan 2015 (Local Time) from TJSJ Reporting Station
Few Clouds Few Clouds  
Wind Chill: 78°   Ceiling: Unl
Heat Index: 80°   Visibility: 10mi
Dew Point: 70°   Wind: 7mph
Humidity: 76%   Direction: 90°E
Pressure: 29.98"   Gusts: NA
Location:  18.0561°N, 66.5063°W
Report Text: TJSJ 282356Z 09006KT 10SM FEW050 26/21 A2998 RMK AO2 SLP152 T02560211 10317 20256 53014
Loading
Personal Weather Stations






























Interactive Weather Map New forecast layout! Learn more

10-Day Weather Forecast

Advertisements
Track Severe Weather on mobile